CCA1386 ZGGG-ZBAA
Flight info
| Callsign | CCA1386 |
|---|---|
| Flight time | N/A |
| Altitude | 41100 |
| Route | MIKIP9 MIKIP A461 BUBDA W56 DUGEB DUGEB6J |
| Aircraft | A359/H-SDE3FGHIJ1J2J3J4J5M1P2RWYZ/LB1D1 |
Departure
| Time | 2026-05-05 14:31 |
|---|---|
| Airport | Guangzhou Baiyun International Airport (ZGGG) |
Arrival
| Time | N/A |
|---|---|
| Airport | Beijing Capital International Airport (ZBAA) |
| Time | Latitude | Longitude | Altitude | Speed | Heading |
|---|---|---|---|---|---|
| 2026-05-05 13:52 | 23.38598 | 113.29432 | 65 ft | 0 kts | 2° |
| 2026-05-05 14:18 | 23.38594 | 113.29432 | 65 ft | 3 kts | 2° |
| 2026-05-05 14:18 | 23.38571 | 113.29431 | 55 ft | 3 kts | 2° |
| 2026-05-05 14:18 | 23.38548 | 113.29430 | 55 ft | 3 kts | 2° |
| 2026-05-05 14:18 | 23.38529 | 113.29428 | 55 ft | 3 kts | 354° |
| 2026-05-05 14:19 | 23.38516 | 113.29431 | 55 ft | 3 kts | 315° |
| 2026-05-05 14:19 | 23.38507 | 113.29444 | 55 ft | 2 kts | 290° |
| 2026-05-05 14:19 | 23.38508 | 113.29426 | 55 ft | 3 kts | 268° |
| 2026-05-05 14:19 | 23.38502 | 113.29404 | 55 ft | 3 kts | 250° |
| 2026-05-05 14:20 | 23.38494 | 113.29382 | 55 ft | 1 kts | 246° |
| 2026-05-05 14:20 | 23.38493 | 113.29382 | 55 ft | 0 kts | 246° |
| 2026-05-05 14:21 | 23.38493 | 113.29381 | 55 ft | 0 kts | 246° |
| 2026-05-05 14:24 | 23.38492 | 113.29380 | 65 ft | 1 kts | 246° |
| 2026-05-05 14:25 | 23.38487 | 113.29367 | 57 ft | 4 kts | 246° |
| 2026-05-05 14:25 | 23.38469 | 113.29321 | 57 ft | 9 kts | 246° |
| 2026-05-05 14:25 | 23.38440 | 113.29251 | 61 ft | 12 kts | 246° |
| 2026-05-05 14:25 | 23.38408 | 113.29166 | 55 ft | 11 kts | 257° |
| 2026-05-05 14:26 | 23.38415 | 113.29077 | 59 ft | 13 kts | 282° |
| 2026-05-05 14:26 | 23.38439 | 113.28969 | 65 ft | 16 kts | 284° |
| 2026-05-05 14:26 | 23.38464 | 113.28857 | 59 ft | 12 kts | 284° |
| 2026-05-05 14:26 | 23.38468 | 113.28778 | 57 ft | 11 kts | 242° |
| 2026-05-05 14:27 | 23.38398 | 113.28736 | 57 ft | 13 kts | 196° |
| 2026-05-05 14:27 | 23.38301 | 113.28709 | 56 ft | 16 kts | 193° |
| 2026-05-05 14:27 | 23.38186 | 113.28678 | 55 ft | 18 kts | 193° |
| 2026-05-05 14:27 | 23.38069 | 113.28647 | 62 ft | 16 kts | 194° |
| 2026-05-05 14:28 | 23.37990 | 113.28625 | 59 ft | 9 kts | 194° |
| 2026-05-05 14:28 | 23.37927 | 113.28609 | 56 ft | 8 kts | 194° |
| 2026-05-05 14:28 | 23.37912 | 113.28604 | 61 ft | 1 kts | 194° |
| 2026-05-05 14:28 | 23.37888 | 113.28596 | 58 ft | 6 kts | 204° |
| 2026-05-05 14:29 | 23.37872 | 113.28554 | 56 ft | 8 kts | 266° |
| 2026-05-05 14:29 | 23.37881 | 113.28486 | 60 ft | 11 kts | 285° |
| 2026-05-05 14:29 | 23.37909 | 113.28427 | 55 ft | 6 kts | 328° |
| 2026-05-05 14:29 | 23.37955 | 113.28422 | 55 ft | 6 kts | 6° |
| 2026-05-05 14:30 | 23.37981 | 113.28429 | 60 ft | 0 kts | 14° |
| 2026-05-05 14:30 | 23.37982 | 113.28429 | 60 ft | 1 kts | 14° |
| 2026-05-05 14:30 | 23.38022 | 113.28441 | 58 ft | 18 kts | 14° |
| 2026-05-05 14:31 | 23.38353 | 113.28530 | 59 ft | 87 kts | 14° |
| 2026-05-05 14:31 | 23.39173 | 113.28751 | 62 ft | 154 kts | 13° |
| 2026-05-05 14:31 | 23.40253 | 113.29026 | 727 ft | 154 kts | 14° |
| 2026-05-05 14:31 | 23.41321 | 113.29238 | 1434 ft | 159 kts | 4° |
| 2026-05-05 14:32 | 23.42424 | 113.28910 | 1995 ft | 174 kts | 338° |
| 2026-05-05 14:32 | 23.43542 | 113.28437 | 2702 ft | 170 kts | 339° |
| 2026-05-05 14:32 | 23.44631 | 113.27990 | 3446 ft | 165 kts | 339° |
| 2026-05-05 14:32 | 23.45762 | 113.27547 | 3874 ft | 182 kts | 339° |
| 2026-05-05 14:33 | 23.47001 | 113.27077 | 4277 ft | 200 kts | 340° |
| 2026-05-05 14:33 | 23.48392 | 113.26616 | 4742 ft | 218 kts | 347° |
| 2026-05-05 14:33 | 23.49958 | 113.26411 | 5200 ft | 235 kts | 352° |
| 2026-05-05 14:33 | 23.51653 | 113.26321 | 5680 ft | 253 kts | 2° |
| 2026-05-05 14:34 | 23.53425 | 113.26533 | 6468 ft | 261 kts | 5° |
| 2026-05-05 14:34 | 23.55292 | 113.26828 | 7051 ft | 279 kts | 7° |
| 2026-05-05 14:34 | 23.57225 | 113.27217 | 7878 ft | 285 kts | 9° |
| 2026-05-05 14:34 | 23.59172 | 113.27700 | 8855 ft | 289 kts | 12° |
| 2026-05-05 14:35 | 23.61120 | 113.28278 | 9865 ft | 292 kts | 14° |
| 2026-05-05 14:35 | 23.63091 | 113.28957 | 10565 ft | 305 kts | 15° |
| 2026-05-05 14:35 | 23.64449 | 113.29476 | 10858 ft | 320 kts | 17° |
| 2026-05-05 14:35 | 23.66597 | 113.30388 | 11238 ft | 341 kts | 20° |
| 2026-05-05 14:36 | 23.68837 | 113.31456 | 11664 ft | 358 kts | 21° |
| 2026-05-05 14:36 | 23.71226 | 113.32268 | 12304 ft | 362 kts | 8° |
| 2026-05-05 14:36 | 23.73724 | 113.32738 | 13021 ft | 366 kts | 6° |
| 2026-05-05 14:36 | 23.76261 | 113.33145 | 13744 ft | 371 kts | 5° |
| 2026-05-05 14:37 | 23.78832 | 113.33542 | 14378 ft | 375 kts | 5° |
| 2026-05-05 14:37 | 23.81430 | 113.33938 | 15005 ft | 378 kts | 5° |
| 2026-05-05 14:37 | 23.83931 | 113.34317 | 15597 ft | 381 kts | 5° |
| 2026-05-05 14:37 | 23.86569 | 113.34716 | 16214 ft | 384 kts | 5° |
| 2026-05-05 14:38 | 23.89229 | 113.35117 | 16815 ft | 388 kts | 5° |
| 2026-05-05 14:38 | 23.91919 | 113.35524 | 17438 ft | 391 kts | 5° |
| 2026-05-05 14:38 | 23.94623 | 113.35931 | 18031 ft | 395 kts | 5° |
| 2026-05-05 14:38 | 23.97353 | 113.36343 | 18578 ft | 398 kts | 5° |
| 2026-05-05 14:39 | 24.00111 | 113.36761 | 19089 ft | 401 kts | 5° |
| 2026-05-05 14:39 | 24.02882 | 113.37179 | 19608 ft | 403 kts | 5° |
| 2026-05-05 14:39 | 24.05674 | 113.37602 | 20144 ft | 406 kts | 5° |
| 2026-05-05 14:39 | 24.08484 | 113.38026 | 20687 ft | 409 kts | 4° |
| 2026-05-05 14:40 | 24.11314 | 113.38454 | 21244 ft | 412 kts | 4° |
| 2026-05-05 14:40 | 24.14130 | 113.38879 | 21780 ft | 415 kts | 4° |
| 2026-05-05 14:40 | 24.17001 | 113.39314 | 22314 ft | 418 kts | 4° |
| 2026-05-05 14:40 | 24.19896 | 113.39751 | 22869 ft | 421 kts | 4° |
| 2026-05-05 14:41 | 24.22809 | 113.40193 | 23425 ft | 424 kts | 4° |
| 2026-05-05 14:41 | 24.25747 | 113.40638 | 23922 ft | 427 kts | 4° |
| 2026-05-05 14:41 | 24.28703 | 113.41087 | 24437 ft | 429 kts | 4° |
| 2026-05-05 14:41 | 24.31668 | 113.41537 | 24997 ft | 431 kts | 4° |
| 2026-05-05 14:42 | 24.34642 | 113.41949 | 25566 ft | 432 kts | 1° |
| 2026-05-05 14:42 | 24.37643 | 113.42169 | 26143 ft | 432 kts | 359° |
| 2026-05-05 14:42 | 24.40654 | 113.42286 | 26710 ft | 434 kts | 357° |
| 2026-05-05 14:42 | 24.43678 | 113.42356 | 27280 ft | 436 kts | 357° |
| 2026-05-05 14:43 | 24.46715 | 113.42413 | 27874 ft | 438 kts | 356° |
| 2026-05-05 14:43 | 24.49772 | 113.42470 | 28452 ft | 440 kts | 356° |
| 2026-05-05 14:43 | 24.52841 | 113.42536 | 29038 ft | 443 kts | 356° |
| 2026-05-05 14:43 | 24.55930 | 113.42611 | 29570 ft | 445 kts | 357° |
| 2026-05-05 14:44 | 24.59044 | 113.42695 | 30065 ft | 449 kts | 356° |
| 2026-05-05 14:44 | 24.62170 | 113.42782 | 30466 ft | 452 kts | 356° |
| 2026-05-05 14:44 | 24.65329 | 113.42872 | 30865 ft | 455 kts | 356° |
| 2026-05-05 14:44 | 24.68504 | 113.42963 | 31260 ft | 458 kts | 356° |
| 2026-05-05 14:45 | 24.71707 | 113.43055 | 31634 ft | 462 kts | 356° |
| 2026-05-05 14:45 | 24.74929 | 113.43147 | 31993 ft | 465 kts | 356° |
| 2026-05-05 14:45 | 24.78177 | 113.43239 | 32336 ft | 468 kts | 356° |
| 2026-05-05 14:45 | 24.81437 | 113.43331 | 32686 ft | 471 kts | 356° |
| 2026-05-05 14:46 | 24.84736 | 113.43425 | 33038 ft | 473 kts | 356° |
| 2026-05-05 14:46 | 24.88036 | 113.43519 | 33361 ft | 476 kts | 356° |
| 2026-05-05 14:46 | 24.91356 | 113.43614 | 33699 ft | 478 kts | 356° |
| 2026-05-05 14:46 | 24.94678 | 113.43711 | 34152 ft | 477 kts | 355° |
| 2026-05-05 14:47 | 24.97934 | 113.43806 | 34593 ft | 474 kts | 355° |
| 2026-05-05 14:47 | 25.01232 | 113.43904 | 35061 ft | 471 kts | 355° |
| 2026-05-05 14:47 | 25.04500 | 113.43999 | 35511 ft | 469 kts | 355° |
| 2026-05-05 14:47 | 25.07754 | 113.44093 | 35924 ft | 467 kts | 355° |
| 2026-05-05 14:48 | 25.11005 | 113.44186 | 36324 ft | 466 kts | 355° |
| 2026-05-05 14:48 | 25.14241 | 113.44278 | 36711 ft | 465 kts | 354° |
| 2026-05-05 14:48 | 25.17471 | 113.44370 | 37103 ft | 463 kts | 354° |
| 2026-05-05 14:48 | 25.20686 | 113.44462 | 37508 ft | 461 kts | 354° |
| 2026-05-05 14:49 | 25.23885 | 113.44555 | 37917 ft | 459 kts | 354° |
| 2026-05-05 14:49 | 25.27078 | 113.44646 | 38226 ft | 458 kts | 354° |
| 2026-05-05 14:49 | 25.30260 | 113.44737 | 38548 ft | 457 kts | 354° |
| 2026-05-05 14:49 | 25.33438 | 113.44828 | 38876 ft | 457 kts | 354° |
| 2026-05-05 14:50 | 25.36615 | 113.44918 | 39119 ft | 456 kts | 354° |
| 2026-05-05 14:50 | 25.39784 | 113.45009 | 39401 ft | 456 kts | 354° |
| 2026-05-05 14:50 | 25.42956 | 113.45099 | 39656 ft | 455 kts | 354° |
| 2026-05-05 14:50 | 25.46115 | 113.45190 | 39904 ft | 454 kts | 354° |
| 2026-05-05 14:51 | 25.49277 | 113.45281 | 40137 ft | 454 kts | 354° |
| 2026-05-05 14:51 | 25.52431 | 113.45372 | 40362 ft | 453 kts | 354° |
| 2026-05-05 14:51 | 25.55581 | 113.45462 | 40588 ft | 453 kts | 354° |
| 2026-05-05 14:51 | 25.58726 | 113.45552 | 40827 ft | 452 kts | 354° |
| 2026-05-05 14:52 | 25.61870 | 113.45642 | 41040 ft | 452 kts | 354° |
| 2026-05-05 14:52 | 25.65014 | 113.45732 | 41116 ft | 452 kts | 354° |
| 2026-05-05 14:52 | 25.71294 | 113.45914 | 41113 ft | 451 kts | 354° |
| 2026-05-05 14:53 | 25.77519 | 113.46094 | 41109 ft | 450 kts | 354° |
| 2026-05-05 14:53 | 25.83786 | 113.46276 | 41107 ft | 450 kts | 354° |
| 2026-05-05 14:54 | 25.90041 | 113.46404 | 41107 ft | 448 kts | 352° |
| 2026-05-05 14:54 | 25.96249 | 113.46149 | 41095 ft | 445 kts | 350° |
| 2026-05-05 14:55 | 26.02435 | 113.45812 | 41093 ft | 445 kts | 350° |
| 2026-05-05 14:55 | 26.08636 | 113.45529 | 41083 ft | 445 kts | 350° |
| 2026-05-05 14:56 | 26.14826 | 113.45286 | 41082 ft | 445 kts | 351° |
| 2026-05-05 14:56 | 26.21025 | 113.45053 | 41079 ft | 445 kts | 351° |
| 2026-05-05 14:57 | 26.27215 | 113.44820 | 41075 ft | 445 kts | 351° |
| 2026-05-05 14:57 | 26.33405 | 113.44583 | 41068 ft | 445 kts | 351° |
| 2026-05-05 14:58 | 26.39602 | 113.44344 | 41062 ft | 445 kts | 351° |
| 2026-05-05 14:58 | 26.45797 | 113.44106 | 41056 ft | 445 kts | 351° |
| 2026-05-05 14:59 | 26.51983 | 113.43869 | 41051 ft | 445 kts | 351° |
| 2026-05-05 14:59 | 26.58173 | 113.43637 | 41049 ft | 445 kts | 351° |
| 2026-05-05 15:00 | 26.63315 | 113.43436 | 41047 ft | 445 kts | 351° |
| 2026-05-05 15:00 | 26.70505 | 113.43157 | 41044 ft | 445 kts | 351° |
| 2026-05-05 15:01 | 26.76692 | 113.42919 | 41039 ft | 444 kts | 350° |
| 2026-05-05 15:01 | 26.82874 | 113.42679 | 41043 ft | 444 kts | 351° |
| 2026-05-05 15:02 | 26.89052 | 113.42441 | 41034 ft | 444 kts | 351° |
| 2026-05-05 15:02 | 26.95229 | 113.42205 | 41040 ft | 444 kts | 351° |
| 2026-05-05 15:03 | 27.01399 | 113.41968 | 41048 ft | 444 kts | 351° |
| 2026-05-05 15:03 | 27.07572 | 113.41729 | 41039 ft | 443 kts | 351° |
| 2026-05-05 15:04 | 27.13738 | 113.41490 | 41038 ft | 443 kts | 351° |
| 2026-05-05 15:04 | 27.19903 | 113.41251 | 41036 ft | 443 kts | 351° |
| 2026-05-05 15:05 | 27.29140 | 113.40894 | 41034 ft | 442 kts | 351° |
| 2026-05-05 15:06 | 27.35250 | 113.40689 | 41037 ft | 443 kts | 353° |
| 2026-05-05 15:06 | 27.41432 | 113.40800 | 41026 ft | 445 kts | 354° |
| 2026-05-05 15:07 | 27.47630 | 113.41001 | 41027 ft | 445 kts | 354° |
| 2026-05-05 15:07 | 27.53810 | 113.41162 | 41021 ft | 444 kts | 354° |
| 2026-05-05 15:08 | 27.59984 | 113.41289 | 41023 ft | 443 kts | 354° |
| 2026-05-05 15:08 | 27.66156 | 113.41409 | 41022 ft | 443 kts | 354° |
| 2026-05-05 15:09 | 27.72340 | 113.41836 | 41025 ft | 447 kts | 358° |
| 2026-05-05 15:09 | 27.78530 | 113.42481 | 41021 ft | 447 kts | 358° |
| 2026-05-05 15:10 | 27.84718 | 113.43099 | 41018 ft | 446 kts | 357° |
| 2026-05-05 15:10 | 27.90897 | 113.43663 | 41019 ft | 445 kts | 357° |
| 2026-05-05 15:11 | 27.97077 | 113.44208 | 41018 ft | 445 kts | 357° |
| 2026-05-05 15:11 | 28.03248 | 113.44743 | 41017 ft | 445 kts | 357° |
| 2026-05-05 15:12 | 28.09418 | 113.45278 | 41019 ft | 444 kts | 357° |
| 2026-05-05 15:12 | 28.15591 | 113.45756 | 41016 ft | 444 kts | 356° |
| 2026-05-05 15:13 | 28.21712 | 113.46168 | 41016 ft | 443 kts | 356° |
| 2026-05-05 15:13 | 28.27862 | 113.46592 | 41014 ft | 443 kts | 356° |
| 2026-05-05 15:14 | 28.34008 | 113.47025 | 41014 ft | 442 kts | 356° |
| 2026-05-05 15:14 | 28.40152 | 113.47466 | 41020 ft | 442 kts | 356° |
| 2026-05-05 15:15 | 28.46284 | 113.47914 | 41016 ft | 442 kts | 356° |
| 2026-05-05 15:15 | 28.52418 | 113.48347 | 41019 ft | 441 kts | 356° |
| 2026-05-05 15:16 | 28.58550 | 113.48781 | 41011 ft | 441 kts | 356° |
| 2026-05-05 15:16 | 28.64673 | 113.49218 | 41013 ft | 441 kts | 357° |
| 2026-05-05 15:17 | 28.70796 | 113.49657 | 41016 ft | 441 kts | 357° |
| 2026-05-05 15:17 | 28.76921 | 113.50098 | 41009 ft | 441 kts | 357° |
| 2026-05-05 15:18 | 28.83042 | 113.50540 | 41009 ft | 440 kts | 357° |
| 2026-05-05 15:18 | 28.89157 | 113.50977 | 41006 ft | 440 kts | 357° |
| 2026-05-05 15:19 | 28.95272 | 113.51415 | 41007 ft | 440 kts | 357° |
| 2026-05-05 15:19 | 29.01384 | 113.51855 | 41006 ft | 440 kts | 357° |
| 2026-05-05 15:20 | 29.07455 | 113.52294 | 41005 ft | 440 kts | 357° |
| 2026-05-05 15:20 | 29.13561 | 113.52735 | 41002 ft | 440 kts | 357° |
| 2026-05-05 15:21 | 29.19669 | 113.53176 | 41000 ft | 440 kts | 357° |
| 2026-05-05 15:21 | 29.25778 | 113.53618 | 40999 ft | 440 kts | 357° |
| 2026-05-05 15:22 | 29.31884 | 113.54079 | 40996 ft | 440 kts | 358° |
| 2026-05-05 15:22 | 29.37994 | 113.54614 | 40995 ft | 440 kts | 358° |
| 2026-05-05 15:23 | 29.43109 | 113.55072 | 40995 ft | 440 kts | 358° |
| 2026-05-05 15:23 | 29.49218 | 113.55610 | 40991 ft | 440 kts | 358° |
| 2026-05-05 15:24 | 29.55290 | 113.56139 | 40986 ft | 440 kts | 358° |
| 2026-05-05 15:24 | 29.61388 | 113.56667 | 40983 ft | 440 kts | 358° |
| 2026-05-05 15:25 | 29.67492 | 113.57198 | 40981 ft | 440 kts | 358° |
| 2026-05-05 15:25 | 29.73599 | 113.57729 | 40981 ft | 440 kts | 358° |
| 2026-05-05 15:26 | 29.79703 | 113.58262 | 40977 ft | 440 kts | 358° |
| 2026-05-05 15:26 | 29.85799 | 113.58794 | 40980 ft | 440 kts | 358° |
| 2026-05-05 15:27 | 29.91905 | 113.59393 | 40971 ft | 443 kts | 2° |
| 2026-05-05 15:27 | 29.97886 | 113.61265 | 40976 ft | 455 kts | 14° |
| 2026-05-05 15:28 | 30.03748 | 113.64063 | 40968 ft | 457 kts | 16° |
| 2026-05-05 15:28 | 30.09583 | 113.67015 | 40973 ft | 458 kts | 16° |
| 2026-05-05 15:29 | 30.15420 | 113.69969 | 40962 ft | 457 kts | 16° |
| 2026-05-05 15:29 | 30.21255 | 113.72899 | 40963 ft | 457 kts | 16° |
| 2026-05-05 15:30 | 30.27092 | 113.75821 | 40966 ft | 457 kts | 16° |
| 2026-05-05 15:30 | 30.32930 | 113.78745 | 40967 ft | 457 kts | 16° |
| 2026-05-05 15:31 | 30.38777 | 113.81678 | 40966 ft | 457 kts | 16° |
| 2026-05-05 15:31 | 30.44609 | 113.84609 | 40964 ft | 457 kts | 16° |
| 2026-05-05 15:32 | 30.50438 | 113.87543 | 40965 ft | 457 kts | 16° |
| 2026-05-05 15:32 | 30.56274 | 113.90484 | 40966 ft | 457 kts | 16° |
| 2026-05-05 15:33 | 30.62109 | 113.93428 | 40970 ft | 457 kts | 16° |
| 2026-05-05 15:33 | 30.67954 | 113.96343 | 40972 ft | 456 kts | 15° |
| 2026-05-05 15:34 | 30.73796 | 113.99240 | 40976 ft | 458 kts | 18° |
| 2026-05-05 15:34 | 30.79503 | 114.02475 | 40980 ft | 460 kts | 19° |
| 2026-05-05 15:35 | 30.85294 | 114.05711 | 40982 ft | 458 kts | 18° |
| 2026-05-05 15:35 | 30.91077 | 114.08844 | 40978 ft | 458 kts | 18° |
| 2026-05-05 15:36 | 30.96816 | 114.11942 | 40976 ft | 458 kts | 18° |
| 2026-05-05 15:36 | 31.02599 | 114.15077 | 40975 ft | 458 kts | 18° |
| 2026-05-05 15:37 | 31.08374 | 114.18222 | 40969 ft | 458 kts | 18° |
| 2026-05-05 15:37 | 31.14147 | 114.21358 | 40967 ft | 458 kts | 18° |
| 2026-05-05 15:38 | 31.19933 | 114.24506 | 40968 ft | 458 kts | 18° |
| 2026-05-05 15:38 | 31.25713 | 114.27660 | 40967 ft | 458 kts | 18° |
| 2026-05-05 15:39 | 31.31487 | 114.30806 | 40972 ft | 457 kts | 17° |
| 2026-05-05 15:39 | 31.37469 | 114.32937 | 40974 ft | 444 kts | 3° |
| 2026-05-05 15:40 | 31.43575 | 114.33458 | 40973 ft | 439 kts | 357° |
| 2026-05-05 15:40 | 31.49680 | 114.33638 | 40967 ft | 438 kts | 356° |
| 2026-05-05 15:41 | 31.55784 | 114.33776 | 40971 ft | 439 kts | 356° |
| 2026-05-05 15:41 | 31.61898 | 114.33937 | 40977 ft | 440 kts | 356° |
| 2026-05-05 15:42 | 31.68019 | 114.34116 | 40960 ft | 440 kts | 356° |
| 2026-05-05 15:42 | 31.74149 | 114.34303 | 40964 ft | 440 kts | 356° |
| 2026-05-05 15:43 | 31.80231 | 114.34490 | 40959 ft | 441 kts | 356° |
| 2026-05-05 15:43 | 31.86358 | 114.34684 | 40952 ft | 440 kts | 356° |
| 2026-05-05 15:44 | 31.92483 | 114.34863 | 40957 ft | 440 kts | 356° |
| 2026-05-05 15:44 | 31.98594 | 114.35043 | 40952 ft | 440 kts | 356° |
| 2026-05-05 15:45 | 32.04708 | 114.35226 | 40947 ft | 440 kts | 356° |
| 2026-05-05 15:45 | 32.10828 | 114.35411 | 40947 ft | 440 kts | 356° |
| 2026-05-05 15:46 | 32.16940 | 114.35596 | 40945 ft | 439 kts | 356° |
| 2026-05-05 15:46 | 32.23060 | 114.35782 | 40944 ft | 439 kts | 356° |
| 2026-05-05 15:47 | 32.29174 | 114.36038 | 40944 ft | 441 kts | 359° |
| 2026-05-05 15:47 | 32.35303 | 114.36626 | 40942 ft | 442 kts | 360° |
| 2026-05-05 15:48 | 32.41429 | 114.37265 | 40943 ft | 442 kts | 360° |
| 2026-05-05 15:48 | 32.47556 | 114.37859 | 40943 ft | 442 kts | 359° |
| 2026-05-05 15:49 | 32.53681 | 114.38424 | 40935 ft | 442 kts | 359° |
| 2026-05-05 15:49 | 32.59807 | 114.38981 | 40939 ft | 442 kts | 359° |
| 2026-05-05 15:50 | 32.65897 | 114.39540 | 40939 ft | 442 kts | 359° |
| 2026-05-05 15:50 | 32.72027 | 114.40113 | 40939 ft | 442 kts | 359° |
| 2026-05-05 15:51 | 32.78157 | 114.40681 | 40938 ft | 442 kts | 359° |
| 2026-05-05 15:51 | 32.84286 | 114.41251 | 40937 ft | 442 kts | 359° |
| 2026-05-05 15:52 | 32.90420 | 114.41823 | 40938 ft | 442 kts | 359° |
| 2026-05-05 15:52 | 32.96556 | 114.42397 | 40937 ft | 442 kts | 359° |
| 2026-05-05 15:53 | 33.02690 | 114.42971 | 40936 ft | 442 kts | 359° |
| 2026-05-05 15:53 | 33.08827 | 114.43547 | 40936 ft | 442 kts | 359° |
| 2026-05-05 15:54 | 33.14965 | 114.44123 | 40937 ft | 442 kts | 359° |
| 2026-05-05 15:54 | 33.21063 | 114.44696 | 40934 ft | 442 kts | 359° |
| 2026-05-05 15:55 | 33.27200 | 114.45275 | 40933 ft | 442 kts | 359° |
| 2026-05-05 15:55 | 33.33338 | 114.45860 | 40935 ft | 442 kts | 359° |
| 2026-05-05 15:56 | 33.39475 | 114.46434 | 40930 ft | 443 kts | 359° |
| 2026-05-05 15:56 | 33.45619 | 114.47009 | 40930 ft | 443 kts | 359° |
| 2026-05-05 15:57 | 33.51763 | 114.47586 | 40927 ft | 443 kts | 359° |
| 2026-05-05 15:57 | 33.57904 | 114.48166 | 40930 ft | 443 kts | 359° |
| 2026-05-05 15:58 | 33.64044 | 114.48752 | 40930 ft | 443 kts | 359° |
| 2026-05-05 15:58 | 33.70190 | 114.49328 | 40929 ft | 443 kts | 359° |
| 2026-05-05 15:59 | 33.76330 | 114.49896 | 40930 ft | 443 kts | 359° |
| 2026-05-05 15:59 | 33.82476 | 114.50470 | 40927 ft | 443 kts | 359° |
| 2026-05-05 16:00 | 33.88628 | 114.51056 | 40933 ft | 443 kts | 359° |
| 2026-05-05 16:00 | 33.94775 | 114.51632 | 40925 ft | 443 kts | 359° |
| 2026-05-05 16:01 | 34.00918 | 114.52209 | 40922 ft | 443 kts | 359° |
| 2026-05-05 16:01 | 34.07060 | 114.52789 | 40920 ft | 443 kts | 359° |
| 2026-05-05 16:02 | 34.13206 | 114.53371 | 40924 ft | 443 kts | 359° |
| 2026-05-05 16:02 | 34.19351 | 114.53954 | 40917 ft | 443 kts | 359° |
| 2026-05-05 16:03 | 34.25448 | 114.54533 | 40920 ft | 442 kts | 359° |
| 2026-05-05 16:03 | 34.31591 | 114.55117 | 40916 ft | 443 kts | 359° |
| 2026-05-05 16:04 | 34.37731 | 114.55702 | 40914 ft | 443 kts | 359° |
| 2026-05-05 16:04 | 34.43876 | 114.56289 | 40913 ft | 443 kts | 359° |
| 2026-05-05 16:05 | 34.50028 | 114.56879 | 40911 ft | 443 kts | 359° |
| 2026-05-05 16:05 | 34.56178 | 114.57460 | 40912 ft | 444 kts | 359° |
| 2026-05-05 16:06 | 34.62339 | 114.58041 | 40901 ft | 444 kts | 359° |
| 2026-05-05 16:06 | 34.68501 | 114.58625 | 40903 ft | 444 kts | 359° |
| 2026-05-05 16:07 | 34.74675 | 114.59213 | 40901 ft | 445 kts | 359° |
| 2026-05-05 16:07 | 34.80843 | 114.59801 | 40893 ft | 445 kts | 359° |
| 2026-05-05 16:08 | 34.87023 | 114.60391 | 40894 ft | 445 kts | 359° |